sensor_id;sensor_type;location;lat;lon;timestamp;temperature;humidity
64874;HTU21D;51367;45.204;38.576;2022-08-25T00:01:27;24.91;38.25
64874;HTU21D;51367;45.204;38.576;2022-08-25T00:03:53;24.88;38.75
64874;HTU21D;51367;45.204;38.576;2022-08-25T00:06:20;24.84;38.62
64874;HTU21D;51367;45.204;38.576;2022-08-25T00:08:46;24.80;38.94
64874;HTU21D;51367;45.204;38.576;2022-08-25T00:11:18;24.79;39.05
64874;HTU21D;51367;45.204;38.576;2022-08-25T00:13:48;24.77;39.66
64874;HTU21D;51367;45.204;38.576;2022-08-25T00:16:15;24.74;39.65
64874;HTU21D;51367;45.204;38.576;2022-08-25T00:18:44;24.71;39.68
64874;HTU21D;51367;45.204;38.576;2022-08-25T00:21:11;24.69;40.20
64874;HTU21D;51367;45.204;38.576;2022-08-25T00:23:38;24.65;40.28
64874;HTU21D;51367;45.204;38.576;2022-08-25T00:26:05;24.63;40.47
64874;HTU21D;51367;45.204;38.576;2022-08-25T00:28:31;24.60;41.04
64874;HTU21D;51367;45.204;38.576;2022-08-25T00:30:57;24.58;40.91
64874;HTU21D;51367;45.204;38.576;2022-08-25T00:33:24;24.54;40.75
64874;HTU21D;51367;45.204;38.576;2022-08-25T00:35:51;24.51;41.13
64874;HTU21D;51367;45.204;38.576;2022-08-25T00:38:17;24.49;41.33
64874;HTU21D;51367;45.204;38.576;2022-08-25T00:40:44;24.46;41.19
64874;HTU21D;51367;45.204;38.576;2022-08-25T00:43:11;24.43;41.58
64874;HTU21D;51367;45.204;38.576;2022-08-25T00:45:37;24.40;41.44
64874;HTU21D;51367;45.204;38.576;2022-08-25T00:48:04;24.38;42.16
64874;HTU21D;51367;45.204;38.576;2022-08-25T00:50:32;24.35;42.15
64874;HTU21D;51367;45.204;38.576;2022-08-25T00:53:02;24.32;42.55
64874;HTU21D;51367;45.204;38.576;2022-08-25T00:55:33;24.28;42.60
64874;HTU21D;51367;45.204;38.576;2022-08-25T00:58:17;24.24;42.52
64874;HTU21D;51367;45.204;38.576;2022-08-25T01:00:47;24.21;42.71
64874;HTU21D;51367;45.204;38.576;2022-08-25T01:03:15;24.18;43.03
64874;HTU21D;51367;45.204;38.576;2022-08-25T01:05:42;24.14;43.00
64874;HTU21D;51367;45.204;38.576;2022-08-25T01:08:09;24.10;43.71
64874;HTU21D;51367;45.204;38.576;2022-08-25T01:10:38;24.06;43.94
64874;HTU21D;51367;45.204;38.576;2022-08-25T01:13:18;24.03;43.80
64874;HTU21D;51367;45.204;38.576;2022-08-25T01:15:46;24.03;44.11
64874;HTU21D;51367;45.204;38.576;2022-08-25T01:18:14;23.99;43.94
64874;HTU21D;51367;45.204;38.576;2022-08-25T01:20:40;23.95;44.22
64874;HTU21D;51367;45.204;38.576;2022-08-25T01:23:07;23.91;44.51
64874;HTU21D;51367;45.204;38.576;2022-08-25T01:28:35;23.86;44.54
64874;HTU21D;51367;45.204;38.576;2022-08-25T01:31:02;23.83;44.30
64874;HTU21D;51367;45.204;38.576;2022-08-25T01:33:28;23.79;44.45
64874;HTU21D;51367;45.204;38.576;2022-08-25T01:35:54;23.76;44.42
64874;HTU21D;51367;45.204;38.576;2022-08-25T01:38:20;23.72;45.08
64874;HTU21D;51367;45.204;38.576;2022-08-25T01:40:46;23.67;44.97
64874;HTU21D;51367;45.204;38.576;2022-08-25T01:43:25;23.65;44.68
64874;HTU21D;51367;45.204;38.576;2022-08-25T01:45:55;23.60;44.89
64874;HTU21D;51367;45.204;38.576;2022-08-25T01:48:22;23.58;45.07
64874;HTU21D;51367;45.204;38.576;2022-08-25T01:50:48;23.53;45.06
64874;HTU21D;51367;45.204;38.576;2022-08-25T01:53:26;23.52;45.09
64874;HTU21D;51367;45.204;38.576;2022-08-25T01:55:52;23.46;45.40
64874;HTU21D;51367;45.204;38.576;2022-08-25T01:58:32;23.42;45.28
64874;HTU21D;51367;45.204;38.576;2022-08-25T02:01:02;23.41;45.64
64874;HTU21D;51367;45.204;38.576;2022-08-25T02:03:29;23.37;45.49
64874;HTU21D;51367;45.204;38.576;2022-08-25T02:05:56;23.32;45.61
64874;HTU21D;51367;45.204;38.576;2022-08-25T02:08:23;23.30;45.79
64874;HTU21D;51367;45.204;38.576;2022-08-25T02:10:51;23.26;45.82
64874;HTU21D;51367;45.204;38.576;2022-08-25T02:13:18;23.24;46.25
64874;HTU21D;51367;45.204;38.576;2022-08-25T02:15:48;23.21;46.20
64874;HTU21D;51367;45.204;38.576;2022-08-25T02:18:16;23.15;46.26
64874;HTU21D;51367;45.204;38.576;2022-08-25T02:20:42;23.13;46.38
64874;HTU21D;51367;45.204;38.576;2022-08-25T02:23:08;23.12;46.47
64874;HTU21D;51367;45.204;38.576;2022-08-25T02:25:36;23.07;46.76
64874;HTU21D;51367;45.204;38.576;2022-08-25T02:28:04;23.05;46.67
64874;HTU21D;51367;45.204;38.576;2022-08-25T02:30:31;23.00;46.64
64874;HTU21D;51367;45.204;38.576;2022-08-25T02:32:57;22.99;46.63
64874;HTU21D;51367;45.204;38.576;2022-08-25T02:35:23;22.96;46.70
64874;HTU21D;51367;45.204;38.576;2022-08-25T02:37:51;22.93;46.82
64874;HTU21D;51367;45.204;38.576;2022-08-25T02:40:17;22.90;46.80
64874;HTU21D;51367;45.204;38.576;2022-08-25T02:42:48;22.86;46.67
64874;HTU21D;51367;45.204;38.576;2022-08-25T02:45:15;22.86;46.60
64874;HTU21D;51367;45.204;38.576;2022-08-25T02:47:41;22.82;46.82
64874;HTU21D;51367;45.204;38.576;2022-08-25T02:50:08;22.79;46.90
64874;HTU21D;51367;45.204;38.576;2022-08-25T02:52:34;22.77;47.19
64874;HTU21D;51367;45.204;38.576;2022-08-25T02:55:06;22.72;47.19
64874;HTU21D;51367;45.204;38.576;2022-08-25T02:57:33;22.70;47.43
64874;HTU21D;51367;45.204;38.576;2022-08-25T02:59:59;22.69;47.48
64874;HTU21D;51367;45.204;38.576;2022-08-25T03:02:25;22.68;47.34
64874;HTU21D;51367;45.204;38.576;2022-08-25T03:04:53;22.67;47.47
64874;HTU21D;51367;45.204;38.576;2022-08-25T03:07:19;22.66;47.36
64874;HTU21D;51367;45.204;38.576;2022-08-25T03:09:46;22.66;47.74
64874;HTU21D;51367;45.204;38.576;2022-08-25T03:12:12;22.66;47.54
64874;HTU21D;51367;45.204;38.576;2022-08-25T03:14:39;22.67;47.47
64874;HTU21D;51367;45.204;38.576;2022-08-25T03:17:07;22.66;47.38
64874;HTU21D;51367;45.204;38.576;2022-08-25T03:19:33;22.66;47.31
64874;HTU21D;51367;45.204;38.576;2022-08-25T03:21:59;22.68;47.47
64874;HTU21D;51367;45.204;38.576;2022-08-25T03:24:26;22.67;48.02
64874;HTU21D;51367;45.204;38.576;2022-08-25T03:26:52;22.69;47.96
64874;HTU21D;51367;45.204;38.576;2022-08-25T03:29:29;22.69;47.92
64874;HTU21D;51367;45.204;38.576;2022-08-25T03:31:56;22.70;47.88
64874;HTU21D;51367;45.204;38.576;2022-08-25T03:34:24;22.73;47.83
64874;HTU21D;51367;45.204;38.576;2022-08-25T03:36:53;22.76;47.99
64874;HTU21D;51367;45.204;38.576;2022-08-25T03:39:21;22.77;47.95
64874;HTU21D;51367;45.204;38.576;2022-08-25T03:41:48;22.84;47.91
64874;HTU21D;51367;45.204;38.576;2022-08-25T03:44:15;22.88;48.44
64874;HTU21D;51367;45.204;38.576;2022-08-25T03:46:43;22.94;48.37
64874;HTU21D;51367;45.204;38.576;2022-08-25T03:49:19;23.01;48.63
64874;HTU21D;51367;45.204;38.576;2022-08-25T03:51:47;23.09;48.43
64874;HTU21D;51367;45.204;38.576;2022-08-25T03:54:20;23.18;48.24
64874;HTU21D;51367;45.204;38.576;2022-08-25T03:56:46;23.27;48.66
64874;HTU21D;51367;45.204;38.576;2022-08-25T03:59:12;23.31;48.77
64874;HTU21D;51367;45.204;38.576;2022-08-25T04:01:41;23.39;48.46
64874;HTU21D;51367;45.204;38.576;2022-08-25T04:04:09;23.47;48.40
64874;HTU21D;51367;45.204;38.576;2022-08-25T04:06:37;23.54;48.86
64874;HTU21D;51367;45.204;38.576;2022-08-25T04:09:04;23.60;49.09
64874;HTU21D;51367;45.204;38.576;2022-08-25T04:11:30;23.66;48.73
64874;HTU21D;51367;45.204;38.576;2022-08-25T04:13:57;23.74;48.66
64874;HTU21D;51367;45.204;38.576;2022-08-25T04:16:30;23.85;48.53
64874;HTU21D;51367;45.204;38.576;2022-08-25T04:18:59;23.99;48.55
64874;HTU21D;51367;45.204;38.576;2022-08-25T04:21:25;24.08;48.71
64874;HTU21D;51367;45.204;38.576;2022-08-25T04:23:53;24.15;48.75
64874;HTU21D;51367;45.204;38.576;2022-08-25T04:26:34;24.23;48.86
64874;HTU21D;51367;45.204;38.576;2022-08-25T04:29:03;24.30;49.02
64874;HTU21D;51367;45.204;38.576;2022-08-25T04:31:32;24.36;48.93
64874;HTU21D;51367;45.204;38.576;2022-08-25T04:34:00;24.45;48.61
64874;HTU21D;51367;45.204;38.576;2022-08-25T04:36:27;24.55;48.92
64874;HTU21D;51367;45.204;38.576;2022-08-25T04:38:53;24.62;48.91
64874;HTU21D;51367;45.204;38.576;2022-08-25T04:41:21;24.68;49.03
64874;HTU21D;51367;45.204;38.576;2022-08-25T04:43:48;24.71;49.04
64874;HTU21D;51367;45.204;38.576;2022-08-25T04:46:17;24.73;49.18
64874;HTU21D;51367;45.204;38.576;2022-08-25T04:48:44;24.77;49.36
64874;HTU21D;51367;45.204;38.576;2022-08-25T04:51:13;24.84;49.66
64874;HTU21D;51367;45.204;38.576;2022-08-25T04:53:41;24.87;49.73
64874;HTU21D;51367;45.204;38.576;2022-08-25T04:56:20;24.91;49.95
64874;HTU21D;51367;45.204;38.576;2022-08-25T04:58:46;24.93;49.99
64874;HTU21D;51367;45.204;38.576;2022-08-25T05:01:15;25.00;50.05
64874;HTU21D;51367;45.204;38.576;2022-08-25T05:03:42;25.07;50.21
64874;HTU21D;51367;45.204;38.576;2022-08-25T05:06:09;25.13;50.11
64874;HTU21D;51367;45.204;38.576;2022-08-25T05:08:35;25.18;49.94
64874;HTU21D;51367;45.204;38.576;2022-08-25T05:11:09;25.25;49.92
64874;HTU21D;51367;45.204;38.576;2022-08-25T05:13:37;25.30;49.84
64874;HTU21D;51367;45.204;38.576;2022-08-25T05:16:05;25.36;49.62
64874;HTU21D;51367;45.204;38.576;2022-08-25T05:18:32;25.46;49.50
64874;HTU21D;51367;45.204;38.576;2022-08-25T05:21:11;25.57;49.52
64874;HTU21D;51367;45.204;38.576;2022-08-25T05:23:38;25.59;49.44
64874;HTU21D;51367;45.204;38.576;2022-08-25T05:26:10;25.60;49.50
64874;HTU21D;51367;45.204;38.576;2022-08-25T05:28:37;25.64;49.90
64874;HTU21D;51367;45.204;38.576;2022-08-25T05:31:07;25.65;49.71
64874;HTU21D;51367;45.204;38.576;2022-08-25T05:33:34;25.63;49.83
64874;HTU21D;51367;45.204;38.576;2022-08-25T05:36:01;25.66;49.92
64874;HTU21D;51367;45.204;38.576;2022-08-25T05:38:27;25.71;49.82
64874;HTU21D;51367;45.204;38.576;2022-08-25T05:41:06;25.77;49.89
64874;HTU21D;51367;45.204;38.576;2022-08-25T05:43:39;25.83;49.77
64874;HTU21D;51367;45.204;38.576;2022-08-25T05:46:05;25.94;49.76
64874;HTU21D;51367;45.204;38.576;2022-08-25T05:48:31;26.02;49.63
64874;HTU21D;51367;45.204;38.576;2022-08-25T05:51:00;26.09;49.56
64874;HTU21D;51367;45.204;38.576;2022-08-25T05:53:28;26.17;49.31
64874;HTU21D;51367;45.204;38.576;2022-08-25T05:55:56;26.26;49.33
64874;HTU21D;51367;45.204;38.576;2022-08-25T05:58:23;26.31;49.12
64874;HTU21D;51367;45.204;38.576;2022-08-25T06:00:51;26.38;49.11
64874;HTU21D;51367;45.204;38.576;2022-08-25T06:03:17;26.51;49.02
64874;HTU21D;51367;45.204;38.576;2022-08-25T06:05:43;26.64;48.90
64874;HTU21D;51367;45.204;38.576;2022-08-25T06:08:09;26.72;48.78
64874;HTU21D;51367;45.204;38.576;2022-08-25T06:10:36;26.81;48.61
64874;HTU21D;51367;45.204;38.576;2022-08-25T06:13:04;26.85;48.50
64874;HTU21D;51367;45.204;38.576;2022-08-25T06:15:31;26.96;48.41
64874;HTU21D;51367;45.204;38.576;2022-08-25T06:17:57;27.06;48.28
64874;HTU21D;51367;45.204;38.576;2022-08-25T06:20:26;27.17;48.12
64874;HTU21D;51367;45.204;38.576;2022-08-25T06:22:53;27.25;47.99
64874;HTU21D;51367;45.204;38.576;2022-08-25T06:25:22;27.40;47.89
64874;HTU21D;51367;45.204;38.576;2022-08-25T06:27:49;27.56;47.68
64874;HTU21D;51367;45.204;38.576;2022-08-25T06:30:18;27.72;47.48
64874;HTU21D;51367;45.204;38.576;2022-08-25T06:32:44;27.87;47.25
64874;HTU21D;51367;45.204;38.576;2022-08-25T06:35:16;28.00;47.04
64874;HTU21D;51367;45.204;38.576;2022-08-25T06:37:44;28.14;46.76
64874;HTU21D;51367;45.204;38.576;2022-08-25T06:40:10;28.26;46.63
64874;HTU21D;51367;45.204;38.576;2022-08-25T06:42:37;28.34;46.51
64874;HTU21D;51367;45.204;38.576;2022-08-25T06:45:04;28.50;46.36
64874;HTU21D;51367;45.204;38.576;2022-08-25T06:47:31;28.59;46.04
64874;HTU21D;51367;45.204;38.576;2022-08-25T06:49:57;28.62;46.07
64874;HTU21D;51367;45.204;38.576;2022-08-25T06:52:23;28.70;46.00
64874;HTU21D;51367;45.204;38.576;2022-08-25T06:54:49;28.77;45.69
64874;HTU21D;51367;45.204;38.576;2022-08-25T06:57:16;28.77;45.70
64874;HTU21D;51367;45.204;38.576;2022-08-25T06:59:44;28.76;45.83
64874;HTU21D;51367;45.204;38.576;2022-08-25T07:02:10;28.82;45.99
64874;HTU21D;51367;45.204;38.576;2022-08-25T07:04:36;28.86;46.06
64874;HTU21D;51367;45.204;38.576;2022-08-25T07:07:03;29.03;46.05
64874;HTU21D;51367;45.204;38.576;2022-08-25T07:09:29;29.23;45.71
64874;HTU21D;51367;45.204;38.576;2022-08-25T07:11:55;29.38;45.53
64874;HTU21D;51367;45.204;38.576;2022-08-25T07:14:22;29.60;45.33
64874;HTU21D;51367;45.204;38.576;2022-08-25T07:16:48;29.78;45.06
64874;HTU21D;51367;45.204;38.576;2022-08-25T07:19:14;29.89;45.09
64874;HTU21D;51367;45.204;38.576;2022-08-25T07:21:41;30.06;45.00
64874;HTU21D;51367;45.204;38.576;2022-08-25T07:24:11;30.20;44.45
64874;HTU21D;51367;45.204;38.576;2022-08-25T07:26:39;30.18;44.00
64874;HTU21D;51367;45.204;38.576;2022-08-25T07:29:10;30.24;44.32
64874;HTU21D;51367;45.204;38.576;2022-08-25T07:31:36;30.44;44.22
64874;HTU21D;51367;45.204;38.576;2022-08-25T07:34:02;30.66;43.93
64874;HTU21D;51367;45.204;38.576;2022-08-25T07:36:46;30.89;43.16
64874;HTU21D;51367;45.204;38.576;2022-08-25T07:39:12;30.96;42.65
64874;HTU21D;51367;45.204;38.576;2022-08-25T07:41:40;30.94;42.44
64874;HTU21D;51367;45.204;38.576;2022-08-25T07:44:08;30.96;42.44
64874;HTU21D;51367;45.204;38.576;2022-08-25T07:46:36;31.00;42.18
64874;HTU21D;51367;45.204;38.576;2022-08-25T07:49:02;31.04;41.97
64874;HTU21D;51367;45.204;38.576;2022-08-25T07:51:28;31.00;41.90
64874;HTU21D;51367;45.204;38.576;2022-08-25T07:53:54;30.99;41.84
64874;HTU21D;51367;45.204;38.576;2022-08-25T07:56:21;30.95;41.84
64874;HTU21D;51367;45.204;38.576;2022-08-25T07:58:47;30.98;41.83
64874;HTU21D;51367;45.204;38.576;2022-08-25T08:01:19;30.95;41.77
64874;HTU21D;51367;45.204;38.576;2022-08-25T08:03:46;30.92;41.80
64874;HTU21D;51367;45.204;38.576;2022-08-25T08:06:15;30.91;41.98
64874;HTU21D;51367;45.204;38.576;2022-08-25T08:08:43;30.97;41.87
64874;HTU21D;51367;45.204;38.576;2022-08-25T08:11:17;31.04;41.75
64874;HTU21D;51367;45.204;38.576;2022-08-25T08:13:45;31.10;41.66
64874;HTU21D;51367;45.204;38.576;2022-08-25T08:16:13;31.19;41.60
64874;HTU21D;51367;45.204;38.576;2022-08-25T08:18:41;31.30;41.31
64874;HTU21D;51367;45.204;38.576;2022-08-25T08:21:22;31.34;41.05
64874;HTU21D;51367;45.204;38.576;2022-08-25T08:23:50;31.38;41.19
64874;HTU21D;51367;45.204;38.576;2022-08-25T08:26:17;31.54;41.11
64874;HTU21D;51367;45.204;38.576;2022-08-25T08:28:43;31.63;40.79
64874;HTU21D;51367;45.204;38.576;2022-08-25T08:31:10;31.63;40.68
64874;HTU21D;51367;45.204;38.576;2022-08-25T08:33:36;31.59;40.81
64874;HTU21D;51367;45.204;38.576;2022-08-25T08:36:10;31.52;40.71
64874;HTU21D;51367;45.204;38.576;2022-08-25T08:38:38;31.45;40.84
64874;HTU21D;51367;45.204;38.576;2022-08-25T08:55:47;31.59;40.40
64874;HTU21D;51367;45.204;38.576;2022-08-25T08:58:41;31.65;40.10
64874;HTU21D;51367;45.204;38.576;2022-08-25T09:01:07;31.70;40.01
64874;HTU21D;51367;45.204;38.576;2022-08-25T09:08:54;31.95;39.78
64874;HTU21D;51367;45.204;38.576;2022-08-25T09:20:23;32.04;39.30
64874;HTU21D;51367;45.204;38.576;2022-08-25T09:31:32;32.24;38.91
64874;HTU21D;51367;45.204;38.576;2022-08-25T09:34:03;32.27;38.98
64874;HTU21D;51367;45.204;38.576;2022-08-25T09:36:31;32.37;39.03
64874;HTU21D;51367;45.204;38.576;2022-08-25T09:38:59;32.44;38.67
64874;HTU21D;51367;45.204;38.576;2022-08-25T09:41:56;32.54;38.46
64874;HTU21D;51367;45.204;38.576;2022-08-25T09:44:27;32.61;38.40
64874;HTU21D;51367;45.204;38.576;2022-08-25T09:47:20;32.68;38.19
64874;HTU21D;51367;45.204;38.576;2022-08-25T09:49:50;32.77;38.42
64874;HTU21D;51367;45.204;38.576;2022-08-25T09:55:25;32.87;38.25
64874;HTU21D;51367;45.204;38.576;2022-08-25T09:57:54;32.79;38.11
64874;HTU21D;51367;45.204;38.576;2022-08-25T10:00:33;32.81;38.00
64874;HTU21D;51367;45.204;38.576;2022-08-25T10:08:25;32.93;37.63
64874;HTU21D;51367;45.204;38.576;2022-08-25T10:10:54;32.96;37.30
64874;HTU21D;51367;45.204;38.576;2022-08-25T10:13:33;32.96;37.48
64874;HTU21D;51367;45.204;38.576;2022-08-25T10:18:36;33.11;37.42
64874;HTU21D;51367;45.204;38.576;2022-08-25T10:23:37;33.08;36.73
64874;HTU21D;51367;45.204;38.576;2022-08-25T10:26:12;33.07;36.82
64874;HTU21D;51367;45.204;38.576;2022-08-25T10:31:34;33.23;36.85
64874;HTU21D;51367;45.204;38.576;2022-08-25T10:34:40;33.25;36.30
64874;HTU21D;51367;45.204;38.576;2022-08-25T10:37:21;33.35;36.40
64874;HTU21D;51367;45.204;38.576;2022-08-25T10:40:06;33.45;36.23
64874;HTU21D;51367;45.204;38.576;2022-08-25T10:45:27;33.58;35.80
64874;HTU21D;51367;45.204;38.576;2022-08-25T10:56:33;33.90;35.30
64874;HTU21D;51367;45.204;38.576;2022-08-25T11:01:43;34.01;34.57
64874;HTU21D;51367;45.204;38.576;2022-08-25T11:04:37;34.05;34.58
64874;HTU21D;51367;45.204;38.576;2022-08-25T11:09:43;34.08;34.41
64874;HTU21D;51367;45.204;38.576;2022-08-25T11:12:14;33.99;34.23
64874;HTU21D;51367;45.204;38.576;2022-08-25T11:14:49;33.88;34.31
64874;HTU21D;51367;45.204;38.576;2022-08-25T11:17:22;33.78;34.53
64874;HTU21D;51367;45.204;38.576;2022-08-25T11:19:56;33.72;34.60
64874;HTU21D;51367;45.204;38.576;2022-08-25T11:22:42;33.63;34.83
64874;HTU21D;51367;45.204;38.576;2022-08-25T11:25:27;33.57;34.89
64874;HTU21D;51367;45.204;38.576;2022-08-25T11:28:08;33.50;34.92
64874;HTU21D;51367;45.204;38.576;2022-08-25T11:30:36;33.38;35.03
64874;HTU21D;51367;45.204;38.576;2022-08-25T11:33:03;33.33;35.17
64874;HTU21D;51367;45.204;38.576;2022-08-25T11:35:39;33.26;35.41
64874;HTU21D;51367;45.204;38.576;2022-08-25T11:51:46;32.86;35.85
64874;HTU21D;51367;45.204;38.576;2022-08-25T11:56:50;32.73;35.97
64874;HTU21D;51367;45.204;38.576;2022-08-25T12:08:02;32.54;36.64
64874;HTU21D;51367;45.204;38.576;2022-08-25T12:11:01;32.48;36.80
64874;HTU21D;51367;45.204;38.576;2022-08-25T12:13:41;32.43;36.94
64874;HTU21D;51367;45.204;38.576;2022-08-25T12:19:29;32.30;37.25
64874;HTU21D;51367;45.204;38.576;2022-08-25T12:25:00;32.20;37.48
64874;HTU21D;51367;45.204;38.576;2022-08-25T12:28:06;32.14;37.62
64874;HTU21D;51367;45.204;38.576;2022-08-25T12:30:44;32.09;37.75
64874;HTU21D;51367;45.204;38.576;2022-08-25T12:33:48;32.02;37.82
64874;HTU21D;51367;45.204;38.576;2022-08-25T12:36:30;31.98;37.85
64874;HTU21D;51367;45.204;38.576;2022-08-25T12:39:16;31.93;37.88
64874;HTU21D;51367;45.204;38.576;2022-08-25T12:47:39;31.84;37.98
64874;HTU21D;51367;45.204;38.576;2022-08-25T12:50:33;31.79;38.01
64874;HTU21D;51367;45.204;38.576;2022-08-25T12:55:58;31.78;37.75
64874;HTU21D;51367;45.204;38.576;2022-08-25T12:58:33;31.81;37.68
64874;HTU21D;51367;45.204;38.576;2022-08-25T13:01:45;31.85;37.52
64874;HTU21D;51367;45.204;38.576;2022-08-25T13:04:32;31.93;37.35
64874;HTU21D;51367;45.204;38.576;2022-08-25T13:10:28;32.05;37.26
64874;HTU21D;51367;45.204;38.576;2022-08-25T13:13:38;32.13;37.03
64874;HTU21D;51367;45.204;38.576;2022-08-25T13:16:21;32.22;36.79
64874;HTU21D;51367;45.204;38.576;2022-08-25T13:18:47;32.30;36.69
64874;HTU21D;51367;45.204;38.576;2022-08-25T13:21:19;32.42;36.70
64874;HTU21D;51367;45.204;38.576;2022-08-25T13:23:51;32.55;36.39
64874;HTU21D;51367;45.204;38.576;2022-08-25T13:26:37;32.72;35.78
64874;HTU21D;51367;45.204;38.576;2022-08-25T13:31:34;32.84;35.66
64874;HTU21D;51367;45.204;38.576;2022-08-25T13:34:04;32.84;35.31
64874;HTU21D;51367;45.204;38.576;2022-08-25T13:36:41;32.86;35.19
64874;HTU21D;51367;45.204;38.576;2022-08-25T13:39:27;32.89;34.93
64874;HTU21D;51367;45.204;38.576;2022-08-25T13:41:56;32.91;34.50
64874;HTU21D;51367;45.204;38.576;2022-08-25T13:44:25;32.94;34.21
64874;HTU21D;51367;45.204;38.576;2022-08-25T13:47:33;33.02;34.08
64874;HTU21D;51367;45.204;38.576;2022-08-25T13:52:59;33.20;33.33
64874;HTU21D;51367;45.204;38.576;2022-08-25T13:55:35;33.26;33.49
64874;HTU21D;51367;45.204;38.576;2022-08-25T13:58:03;33.30;33.39
64874;HTU21D;51367;45.204;38.576;2022-08-25T14:00:32;33.35;33.28
64874;HTU21D;51367;45.204;38.576;2022-08-25T14:03:01;33.37;33.11
64874;HTU21D;51367;45.204;38.576;2022-08-25T14:05:41;33.37;32.99
64874;HTU21D;51367;45.204;38.576;2022-08-25T14:08:27;33.35;32.67
64874;HTU21D;51367;45.204;38.576;2022-08-25T14:11:12;33.33;32.51
64874;HTU21D;51367;45.204;38.576;2022-08-25T14:13:40;33.34;32.91
64874;HTU21D;51367;45.204;38.576;2022-08-25T14:16:21;33.38;32.15
64874;HTU21D;51367;45.204;38.576;2022-08-25T14:18:56;33.42;32.28
64874;HTU21D;51367;45.204;38.576;2022-08-25T14:21:25;33.44;32.20
64874;HTU21D;51367;45.204;38.576;2022-08-25T14:23:53;33.45;32.36
64874;HTU21D;51367;45.204;38.576;2022-08-25T14:26:20;33.45;32.49
64874;HTU21D;51367;45.204;38.576;2022-08-25T14:28:46;33.46;32.54
64874;HTU21D;51367;45.204;38.576;2022-08-25T14:31:31;33.46;32.61
64874;HTU21D;51367;45.204;38.576;2022-08-25T14:34:04;33.44;32.46
64874;HTU21D;51367;45.204;38.576;2022-08-25T14:36:32;33.41;32.44
64874;HTU21D;51367;45.204;38.576;2022-08-25T14:39:00;33.38;32.44
64874;HTU21D;51367;45.204;38.576;2022-08-25T14:41:33;33.34;32.54
64874;HTU21D;51367;45.204;38.576;2022-08-25T14:44:00;33.28;32.36
64874;HTU21D;51367;45.204;38.576;2022-08-25T14:46:29;33.19;32.35
64874;HTU21D;51367;45.204;38.576;2022-08-25T14:48:59;33.12;32.54
64874;HTU21D;51367;45.204;38.576;2022-08-25T14:51:27;33.04;32.35
64874;HTU21D;51367;45.204;38.576;2022-08-25T14:53:58;33.00;32.44
64874;HTU21D;51367;45.204;38.576;2022-08-25T14:56:25;32.93;32.54
64874;HTU21D;51367;45.204;38.576;2022-08-25T14:58:51;32.88;32.55
64874;HTU21D;51367;45.204;38.576;2022-08-25T15:01:19;32.83;32.65
64874;HTU21D;51367;45.204;38.576;2022-08-25T15:03:47;32.79;32.60
64874;HTU21D;51367;45.204;38.576;2022-08-25T15:06:15;32.72;32.73
64874;HTU21D;51367;45.204;38.576;2022-08-25T15:08:42;32.64;32.70
64874;HTU21D;51367;45.204;38.576;2022-08-25T15:11:28;32.58;32.66
64874;HTU21D;51367;45.204;38.576;2022-08-25T15:13:56;32.53;32.78
64874;HTU21D;51367;45.204;38.576;2022-08-25T15:16:26;32.46;32.61
64874;HTU21D;51367;45.204;38.576;2022-08-25T15:18:53;32.38;32.57
64874;HTU21D;51367;45.204;38.576;2022-08-25T15:21:21;32.33;32.55
64874;HTU21D;51367;45.204;38.576;2022-08-25T15:23:48;32.29;32.43
64874;HTU21D;51367;45.204;38.576;2022-08-25T15:26:14;32.23;32.47
64874;HTU21D;51367;45.204;38.576;2022-08-25T15:28:46;32.17;32.58
64874;HTU21D;51367;45.204;38.576;2022-08-25T15:31:15;32.10;32.48
64874;HTU21D;51367;45.204;38.576;2022-08-25T15:33:41;32.03;32.48
64874;HTU21D;51367;45.204;38.576;2022-08-25T15:36:09;31.97;32.25
64874;HTU21D;51367;45.204;38.576;2022-08-25T15:38:36;31.92;32.07
64874;HTU21D;51367;45.204;38.576;2022-08-25T15:41:03;31.86;32.14
64874;HTU21D;51367;45.204;38.576;2022-08-25T15:43:30;31.81;31.91
64874;HTU21D;51367;45.204;38.576;2022-08-25T15:45:56;31.76;32.01
64874;HTU21D;51367;45.204;38.576;2022-08-25T15:48:23;31.72;31.98
64874;HTU21D;51367;45.204;38.576;2022-08-25T15:50:53;31.69;31.90
64874;HTU21D;51367;45.204;38.576;2022-08-25T15:53:21;31.63;31.84
64874;HTU21D;51367;45.204;38.576;2022-08-25T15:55:48;31.59;31.77
64874;HTU21D;51367;45.204;38.576;2022-08-25T15:58:15;31.55;31.73
64874;HTU21D;51367;45.204;38.576;2022-08-25T16:00:45;31.52;31.63
64874;HTU21D;51367;45.204;38.576;2022-08-25T16:03:11;31.48;31.68
64874;HTU21D;51367;45.204;38.576;2022-08-25T16:05:39;31.44;31.36
64874;HTU21D;51367;45.204;38.576;2022-08-25T16:08:06;31.41;31.39
64874;HTU21D;51367;45.204;38.576;2022-08-25T16:10:37;31.40;31.42
64874;HTU21D;51367;45.204;38.576;2022-08-25T16:13:04;31.39;31.28
64874;HTU21D;51367;45.204;38.576;2022-08-25T16:15:30;31.37;31.20
64874;HTU21D;51367;45.204;38.576;2022-08-25T16:17:58;31.37;31.24
64874;HTU21D;51367;45.204;38.576;2022-08-25T16:20:29;31.35;31.32
64874;HTU21D;51367;45.204;38.576;2022-08-25T16:22:55;31.33;31.38
64874;HTU21D;51367;45.204;38.576;2022-08-25T16:25:25;31.30;31.54
64874;HTU21D;51367;45.204;38.576;2022-08-25T16:27:51;31.26;31.50
64874;HTU21D;51367;45.204;38.576;2022-08-25T16:30:17;31.23;31.64
64874;HTU21D;51367;45.204;38.576;2022-08-25T16:32:44;31.18;31.76
64874;HTU21D;51367;45.204;38.576;2022-08-25T16:35:12;31.14;31.81
64874;HTU21D;51367;45.204;38.576;2022-08-25T16:37:39;31.10;31.85
64874;HTU21D;51367;45.204;38.576;2022-08-25T16:40:06;31.05;31.73
64874;HTU21D;51367;45.204;38.576;2022-08-25T16:42:32;31.01;31.67
64874;HTU21D;51367;45.204;38.576;2022-08-25T16:44:59;30.98;31.52
64874;HTU21D;51367;45.204;38.576;2022-08-25T16:47:25;30.94;31.22
64874;HTU21D;51367;45.204;38.576;2022-08-25T16:49:51;30.93;31.28
64874;HTU21D;51367;45.204;38.576;2022-08-25T16:52:17;30.91;31.25
64874;HTU21D;51367;45.204;38.576;2022-08-25T16:55:01;30.87;31.35
64874;HTU21D;51367;45.204;38.576;2022-08-25T16:57:43;30.83;31.45
64874;HTU21D;51367;45.204;38.576;2022-08-25T17:00:17;30.79;31.45
64874;HTU21D;51367;45.204;38.576;2022-08-25T17:02:54;30.76;31.56
64874;HTU21D;51367;45.204;38.576;2022-08-25T17:05:39;30.70;31.69
64874;HTU21D;51367;45.204;38.576;2022-08-25T17:08:08;30.66;31.75
64874;HTU21D;51367;45.204;38.576;2022-08-25T17:11:04;30.60;31.77
64874;HTU21D;51367;45.204;38.576;2022-08-25T17:13:31;30.54;31.79
64874;HTU21D;51367;45.204;38.576;2022-08-25T17:15:59;30.49;31.72
64874;HTU21D;51367;45.204;38.576;2022-08-25T17:18:32;30.45;31.84
64874;HTU21D;51367;45.204;38.576;2022-08-25T17:21:04;30.41;31.91
64874;HTU21D;51367;45.204;38.576;2022-08-25T17:23:31;30.36;31.99
64874;HTU21D;51367;45.204;38.576;2022-08-25T17:25:57;30.32;31.96